• Join FlightAware (Why Join?)
  • Login
  • US Flag 
09:12PM EDT


 

Airport Tracker/Info


-or-


 

Live Flight TrackerFlight Track Log ✈ CTL21 ✈ 15-May-2013 ✈ KAZO - KBKL

Flight Track Log - Related Links

Times and Time Zones

All times are in EDT time to prevent confusion due to time zone crossing. See the CTL21 flight status page for this flight to view local times or setup timezone preferences in your user account.

Time Position Orientation Groundspeed Altitude Reporting Facility
EDT Latitude Longitude Course Direction KTS MPH feet Rate Location/Type
05:20PM 42.1378 -85.5094 116° Southeast 159 183 4,000  Level Chicago Center
05:21PM 42.1164 -85.4583 119° Southeast 156 180 4,600 540 Climbing Chicago Center
05:22PM 42.0961 -85.4031 116° Southeast 161 185 5,200 660 Climbing Chicago Center
05:23PM 42.0789 -85.1882 117° Southeast  Level FlightAware Approximate
05:23PM 42.0706 -85.3372 118° Southeast 165 190 6,000  Level Chicago Center
05:24PM 42.0555 -85.1262 117° Southeast  Level FlightAware Approximate
05:24PM 42.0506 -85.2817 116° Southeast 165 190 6,400  Level Chicago Center
05:25PM 42.0322 -85.2236 113° Southeast 166 191 6,900 240 Climbing Chicago Center
05:26PM 42.0108 -85.1611 115° Southeast 177 204 7,000  Climbing Chicago Center
05:27PM 41.9858 -85.0933 116° Southeast 195 224 7,000  Level Chicago Center
05:28PM 41.9600 -85.0253 117° Southeast 202 232 7,000  Level Chicago Center
05:29PM 41.9361 -84.9581 116° Southeast 201 231 7,100  Climbing Chicago Center
05:30PM 41.9081 -84.8764 115° Southeast 199 229 7,000  Descending Chicago Center
05:31PM 41.8836 -84.8097 116° Southeast 199 229 7,100  Climbing Chicago Center
05:32PM 41.8581 -84.7422 117° Southeast 201 231 7,100  Level Chicago Center
05:33PM 41.8331 -84.6744 116° Southeast 202 232 7,100  Level Chicago Center
05:34PM 41.8081 -84.6044 116° Southeast 205 236 7,100  Level Chicago Center
05:35PM 41.7833 -84.5347 115° Southeast 207 238 7,100  Level Chicago Center
05:36PM 41.7553 -84.4531 115° Southeast 204 235 7,100  Level Chicago Center
05:37PM 41.7306 -84.3844 116° Southeast 204 235 7,100  Level Chicago Center
05:38PM 41.7053 -84.3153 116° Southeast 205 236 7,100  Level Chicago Center
05:39PM 41.6808 -84.2467 115° Southeast 205 236 7,100  Level Chicago Center
05:40PM 41.6539 -84.1739 116° Southeast 204 235 7,100  Level Chicago Center
05:41PM 41.6317 -84.1122 116° Southeast 203 234 7,100  Level Chicago Center